createdAt,value
2018-06-28T00:01:55.884Z,102221.95
2018-06-28T00:04:23.972Z,102201.66
2018-06-28T00:06:52.025Z,102204.82
2018-06-28T00:09:20.101Z,102197.97
2018-06-28T00:11:48.175Z,102183.38
2018-06-28T00:14:16.292Z,102178.13
2018-06-28T00:16:44.380Z,102174.99
2018-06-28T00:19:12.460Z,102180.95
2018-06-28T00:21:40.519Z,102170.95
2018-06-28T00:24:08.663Z,102164.09
2018-06-28T00:26:36.728Z,102152.30
2018-06-28T00:29:04.974Z,102151.36
2018-06-28T00:31:33.027Z,102145.16
2018-06-28T00:34:01.148Z,102138.69
2018-06-28T00:36:29.226Z,102130.23
2018-06-28T00:38:57.285Z,102124.13
2018-06-28T00:41:25.383Z,102118.55
2018-06-28T00:43:53.467Z,102120.12
2018-06-28T00:46:21.584Z,102108.52
2018-06-28T00:48:49.538Z,102104.91
2018-06-28T00:51:17.439Z,102106.62
2018-06-28T00:53:45.226Z,102102.08
2018-06-28T00:56:13.022Z,102094.64
2018-06-28T00:58:40.726Z,102096.55
2018-06-28T01:01:08.453Z,102099.77
2018-06-28T01:03:36.222Z,102095.95
2018-06-28T01:06:03.975Z,102104.70
2018-06-28T01:08:31.732Z,102094.05
2018-06-28T01:10:59.502Z,102087.44
2018-06-28T01:13:27.216Z,102083.11
2018-06-28T01:15:55.091Z,102091.81
2018-06-28T01:18:23.155Z,102079.20
2018-06-28T01:20:51.227Z,102079.11
2018-06-28T01:23:19.313Z,102087.59
2018-06-28T01:25:47.358Z,102084.66
2018-06-28T01:28:15.438Z,102085.89
2018-06-28T01:30:43.190Z,102087.81
2018-06-28T01:33:10.958Z,102095.50
2018-06-28T01:35:38.765Z,102100.09
2018-06-28T01:38:06.549Z,102102.16
2018-06-28T01:40:34.256Z,102100.45
2018-06-28T01:43:29.885Z,102097.42
2018-06-28T01:45:57.666Z,102095.44
2018-06-28T01:48:25.514Z,102105.80
2018-06-28T01:50:53.256Z,102100.34
2018-06-28T01:53:20.986Z,102109.88
2018-06-28T01:55:48.805Z,102107.51
2018-06-28T01:58:17.154Z,102098.86
2018-06-28T02:00:44.989Z,102091.39
2018-06-28T02:03:12.810Z,102081.81
2018-06-28T02:05:40.614Z,102088.15
2018-06-28T02:08:08.403Z,102087.80
2018-06-28T02:10:36.393Z,102076.67
2018-06-28T02:13:04.643Z,102080.35
2018-06-28T02:15:33.165Z,102072.17
2018-06-28T02:18:01.116Z,102073.73
2018-06-28T02:20:29.019Z,102066.29
2018-06-28T02:22:57.238Z,102061.93
2018-06-28T02:25:25.183Z,102054.97
2018-06-28T02:27:52.952Z,102053.34
2018-06-28T02:30:21.058Z,102042.80
2018-06-28T02:32:48.916Z,102039.42
2018-06-28T02:35:16.769Z,102033.11
2018-06-28T02:37:44.540Z,102031.74
2018-06-28T02:40:12.450Z,102021.78
2018-06-28T02:42:40.486Z,102044.95
2018-06-28T02:45:08.400Z,102045.71
2018-06-28T02:47:36.215Z,102033.66
2018-06-28T02:50:04.247Z,102040.44
2018-06-28T02:52:32.065Z,102026.41
2018-06-28T02:55:00.418Z,102023.33
2018-06-28T02:57:28.335Z,102019.25
2018-06-28T02:59:56.174Z,102017.24
2018-06-28T03:02:23.970Z,102013.78
2018-06-28T03:04:51.743Z,102015.61
2018-06-28T03:07:19.530Z,102009.02
2018-06-28T03:09:47.301Z,102007.67
2018-06-28T03:12:15.067Z,102009.87
2018-06-28T03:14:42.842Z,102006.24
2018-06-28T03:17:10.657Z,102002.41
2018-06-28T03:19:38.511Z,101992.02
2018-06-28T03:22:06.363Z,101988.64
2018-06-28T03:24:34.127Z,101999.48
2018-06-28T03:27:01.947Z,101997.55
2018-06-28T03:29:29.801Z,101991.63
2018-06-28T03:31:57.574Z,101987.83
2018-06-28T03:34:25.334Z,101997.32
2018-06-28T03:36:53.131Z,101996.73
2018-06-28T03:39:20.914Z,101998.86
2018-06-28T03:41:48.666Z,101990.63
2018-06-28T03:44:16.430Z,101985.39
2018-06-28T03:46:44.213Z,101973.88
2018-06-28T03:49:12.469Z,101978.02
2018-06-28T03:51:40.300Z,101973.38
2018-06-28T03:54:08.430Z,101982.27
2018-06-28T03:56:36.530Z,101984.58
2018-06-28T03:59:04.374Z,101973.59
2018-06-28T04:01:32.164Z,101971.95
2018-06-28T04:04:00.278Z,101971.19
2018-06-28T04:06:28.164Z,101965.43
2018-06-28T04:08:56.145Z,101957.47
2018-06-28T04:11:24.146Z,101962.75
2018-06-28T04:13:52.047Z,101958.40
2018-06-28T04:16:19.965Z,101967.42
2018-06-28T04:18:47.724Z,101964.47
2018-06-28T04:21:15.701Z,101954.97
2018-06-28T04:23:43.529Z,101945.44
2018-06-28T04:26:11.291Z,101948.55
2018-06-28T04:28:39.050Z,101936.72
2018-06-28T04:31:06.948Z,101931.04
2018-06-28T04:33:34.743Z,101928.94
2018-06-28T04:36:02.582Z,101928.24
2018-06-28T04:38:30.657Z,101937.07
2018-06-28T04:40:58.464Z,101934.77
2018-06-28T04:43:26.278Z,101938.56
2018-06-28T04:45:54.369Z,101940.76
2018-06-28T04:48:22.150Z,101932.72
2018-06-28T04:50:49.977Z,101924.78
2018-06-28T04:53:17.799Z,101919.31
2018-06-28T04:55:45.566Z,101925.77
2018-06-28T04:58:13.364Z,101922.63
2018-06-28T05:00:41.164Z,101924.05
2018-06-28T05:03:09.360Z,101918.53
2018-06-28T05:05:37.423Z,101913.34
2018-06-28T05:08:05.254Z,101910.17
2018-06-28T05:10:33.035Z,101905.63
2018-06-28T05:13:00.818Z,101908.92
2018-06-28T05:15:28.642Z,101905.11
2018-06-28T05:17:56.712Z,101903.55
2018-06-28T05:20:24.550Z,101900.39
2018-06-28T05:22:52.334Z,101899.05
2018-06-28T05:25:20.433Z,101894.48
2018-06-28T05:27:48.201Z,101885.09
2018-06-28T05:30:15.984Z,101884.39
2018-06-28T05:32:43.734Z,101884.09
2018-06-28T05:35:11.486Z,101882.77
2018-06-28T05:37:39.250Z,101881.67
2018-06-28T05:40:07.113Z,101882.66
2018-06-28T05:42:34.934Z,101871.83
2018-06-28T05:45:02.826Z,101867.14
2018-06-28T05:47:30.607Z,101875.32
2018-06-28T05:49:58.410Z,101866.32
2018-06-28T05:52:26.173Z,101860.09
2018-06-28T05:54:53.931Z,101859.12
2018-06-28T05:57:21.644Z,101849.53
2018-06-28T05:59:49.354Z,101856.30
2018-06-28T06:02:17.244Z,101854.05
2018-06-28T06:04:44.913Z,101845.86
2018-06-28T06:07:12.602Z,101844.79
2018-06-28T06:09:40.322Z,101842.48
2018-06-28T06:12:08.066Z,101841.22
2018-06-28T06:14:35.739Z,101841.14
2018-06-28T06:17:03.643Z,101835.49
2018-06-28T06:19:31.306Z,101835.47
2018-06-28T06:21:58.998Z,101828.28
2018-06-28T06:24:27.042Z,101826.03
2018-06-28T06:26:54.725Z,101824.72
2018-06-28T06:29:22.456Z,101822.39
2018-06-28T06:31:50.439Z,101817.73
2018-06-28T06:34:18.144Z,101806.95
2018-06-28T06:36:45.877Z,101806.03
2018-06-28T06:39:13.577Z,101808.42
2018-06-28T06:41:41.244Z,101814.30
2018-06-28T06:44:08.953Z,101798.91
2018-06-28T06:46:36.682Z,101806.36
2018-06-28T06:49:04.454Z,101801.05
2018-06-28T06:51:32.161Z,101795.09
2018-06-28T06:53:59.856Z,101784.50
2018-06-28T06:56:27.546Z,101777.77
2018-06-28T06:58:55.233Z,101777.27
2018-06-28T07:01:22.923Z,101776.08
2018-06-28T07:03:50.614Z,101773.39
2018-06-28T07:06:18.289Z,101777.68
2018-06-28T07:08:45.954Z,101775.76
2018-06-28T07:11:13.955Z,101768.69
2018-06-28T07:13:41.879Z,101766.70
2018-06-28T07:16:09.553Z,101764.09
2018-06-28T07:18:37.220Z,101763.01
2018-06-28T07:21:05.005Z,101760.77
2018-06-28T07:23:32.756Z,101761.89
2018-06-28T07:26:00.438Z,101753.11
2018-06-28T07:28:28.153Z,101755.90
2018-06-28T07:30:55.960Z,101747.60
2018-06-28T07:33:23.629Z,101741.11
2018-06-28T07:35:51.488Z,101741.16
2018-06-28T07:38:19.183Z,101736.17
2018-06-28T07:40:46.870Z,101704.79
2018-06-28T07:43:14.607Z,101717.97
2018-06-28T07:45:42.294Z,101722.72
2018-06-28T07:48:09.990Z,101713.75
2018-06-28T07:50:37.710Z,101714.91
2018-06-28T07:53:05.414Z,101709.13
2018-06-28T07:55:33.070Z,101699.75
2018-06-28T07:58:00.777Z,101705.02
2018-06-28T08:00:28.662Z,101704.41
2018-06-28T08:02:56.496Z,101705.46
2018-06-28T08:05:24.123Z,101700.94
2018-06-28T08:07:51.789Z,101702.42
2018-06-28T08:10:19.463Z,101707.76
2018-06-28T08:12:47.126Z,101707.11
2018-06-28T08:15:14.807Z,101707.25
2018-06-28T08:17:42.562Z,101708.29
2018-06-28T08:20:10.267Z,101706.42
2018-06-28T08:22:37.985Z,101703.33
2018-06-28T08:25:05.843Z,101705.72
2018-06-28T08:27:33.792Z,101710.55
2018-06-28T08:30:01.461Z,101707.16
2018-06-28T08:32:29.153Z,101707.02
2018-06-28T08:34:56.851Z,101704.55
2018-06-28T08:37:24.550Z,101698.38
2018-06-28T08:39:52.266Z,101694.07
2018-06-28T08:42:19.988Z,101695.38
2018-06-28T08:44:47.678Z,101691.07
2018-06-28T08:47:15.363Z,101696.72
2018-06-28T08:49:43.006Z,101688.88
2018-06-28T08:52:10.720Z,101686.87
2018-06-28T08:54:38.387Z,101682.66
2018-06-28T08:57:06.106Z,101682.33
2018-06-28T08:59:33.781Z,101680.02
2018-06-28T09:02:01.466Z,101684.72
2018-06-28T09:04:29.214Z,101682.38
2018-06-28T09:06:56.882Z,101679.33
2018-06-28T09:09:24.629Z,101670.03
2018-06-28T09:11:52.316Z,101665.86
2018-06-28T09:14:19.986Z,101657.81
2018-06-28T09:16:47.732Z,101658.98
2018-06-28T09:19:15.538Z,101653.87
2018-06-28T09:21:43.318Z,101653.25
2018-06-28T09:24:11.127Z,101655.04
2018-06-28T09:26:38.915Z,101648.89
2018-06-28T09:29:06.757Z,101649.69
2018-06-28T09:31:34.914Z,101655.56
2018-06-28T09:34:02.650Z,101633.31
2018-06-28T09:36:30.838Z,101634.00
2018-06-28T09:38:58.605Z,101632.28
2018-06-28T09:41:26.337Z,101630.37
2018-06-28T09:43:54.102Z,101624.53
2018-06-28T09:46:21.885Z,101621.09
2018-06-28T09:48:49.689Z,101625.12
2018-06-28T09:51:17.396Z,101627.34
2018-06-28T09:53:45.152Z,101618.97
2018-06-28T09:56:13.450Z,101620.32
2018-06-28T09:58:41.244Z,101612.27
2018-06-28T10:01:08.986Z,101604.91
2018-06-28T10:03:36.709Z,101605.84
2018-06-28T10:06:04.658Z,101611.75
2018-06-28T10:08:32.405Z,101606.67
2018-06-28T10:11:00.114Z,101612.58
2018-06-28T10:13:27.834Z,101627.41
2018-06-28T10:15:55.574Z,101631.27
2018-06-28T10:18:23.330Z,101624.50
2018-06-28T10:20:51.073Z,101616.77
2018-06-28T10:23:18.877Z,101623.19
2018-06-28T10:25:46.614Z,101614.10
2018-06-28T10:28:14.361Z,101614.10
2018-06-28T10:30:42.129Z,101612.41
2018-06-28T10:33:09.887Z,101618.62
2018-06-28T10:35:37.610Z,101603.80
2018-06-28T10:38:05.486Z,101599.84
2018-06-28T10:40:33.226Z,101595.42
2018-06-28T10:43:00.966Z,101597.77
2018-06-28T10:45:28.715Z,101598.14
2018-06-28T10:47:56.448Z,101588.68
2018-06-28T10:50:24.259Z,101587.33
2018-06-28T10:52:51.934Z,101575.90
2018-06-28T10:55:19.673Z,101581.95
2018-06-28T10:57:48.081Z,101564.74
2018-06-28T11:00:16.059Z,101567.82
2018-06-28T11:02:43.783Z,101556.32
2018-06-28T11:05:11.531Z,101555.15
2018-06-28T11:07:39.318Z,101545.83
2018-06-28T11:10:07.504Z,101545.13
2018-06-28T11:12:35.257Z,101547.89
2018-06-28T11:15:03.003Z,101552.41
2018-06-28T11:17:30.665Z,101563.05
2018-06-28T11:19:58.369Z,101557.70
2018-06-28T11:22:26.177Z,101546.81
2018-06-28T11:24:53.921Z,101548.17
2018-06-28T11:27:21.668Z,101536.06
2018-06-28T11:29:49.359Z,101521.80
2018-06-28T11:32:17.105Z,101541.30
2018-06-28T11:34:44.831Z,101526.58
2018-06-28T11:37:12.654Z,101529.88
2018-06-28T11:39:40.396Z,101533.91
2018-06-28T11:42:08.089Z,101516.02
2018-06-28T11:44:35.770Z,101521.59
2018-06-28T11:47:03.490Z,101504.45
2018-06-28T11:49:31.223Z,101507.45
2018-06-28T11:51:58.926Z,101500.69
2018-06-28T11:54:26.724Z,101495.08
2018-06-28T11:56:54.430Z,101514.52
2018-06-28T11:59:22.145Z,101524.50
2018-06-28T12:01:49.905Z,101521.34
2018-06-28T12:04:17.611Z,101512.09
2018-06-28T12:06:45.309Z,101509.31
2018-06-28T12:09:13.042Z,101505.15
2018-06-28T12:11:41.138Z,101500.42
2018-06-28T12:14:09.318Z,101495.77
2018-06-28T12:16:37.012Z,101493.91
2018-06-28T12:19:04.766Z,101500.15
2018-06-28T12:21:32.501Z,101503.63
2018-06-28T12:24:00.223Z,101522.86
2018-06-28T12:26:28.019Z,101535.08
2018-06-28T12:28:55.779Z,101526.26
2018-06-28T12:31:23.948Z,101505.79
2018-06-28T12:33:51.646Z,101499.28
2018-06-28T12:36:19.385Z,101493.92
2018-06-28T12:38:47.164Z,101484.40
2018-06-28T12:41:14.890Z,101483.06
2018-06-28T12:43:42.639Z,101476.55
2018-06-28T12:46:10.401Z,101471.72
2018-06-28T12:48:38.112Z,101464.95
2018-06-28T12:51:05.958Z,101458.58
2018-06-28T12:53:33.719Z,101457.22
2018-06-28T12:56:33.574Z,101464.28
2018-06-28T12:59:02.772Z,101466.38
2018-06-28T13:01:30.705Z,101459.16
2018-06-28T13:03:58.746Z,101457.70
2018-06-28T13:06:26.679Z,101454.77
2018-06-28T13:08:55.273Z,101447.37
2018-06-28T13:11:23.402Z,101449.66
2018-06-28T13:13:51.416Z,101455.33
2018-06-28T13:16:19.926Z,101453.64
2018-06-28T13:18:48.608Z,101469.81
2018-06-28T13:21:16.422Z,101463.86
2018-06-28T13:23:45.013Z,101465.11
2018-06-28T13:26:13.942Z,101458.62
2018-06-28T13:28:42.381Z,101452.91
2018-06-28T13:31:10.148Z,101447.60
2018-06-28T13:33:39.622Z,101443.70
2018-06-28T13:36:07.438Z,101419.09
2018-06-28T13:38:35.532Z,101420.89
2018-06-28T13:41:03.491Z,101434.84
2018-06-28T13:43:31.479Z,101420.28
2018-06-28T13:45:59.350Z,101405.17
2018-06-28T13:48:27.121Z,101387.32
2018-06-28T13:50:54.924Z,101382.30
2018-06-28T13:53:22.912Z,101373.13
2018-06-28T13:55:50.763Z,101366.08
2018-06-28T13:58:18.646Z,101347.46
2018-06-28T14:00:47.017Z,101334.77
2018-06-28T14:03:15.108Z,101328.29
2018-06-28T14:05:43.442Z,101325.48
2018-06-28T14:08:11.554Z,101320.88
2018-06-28T14:10:39.686Z,101319.70
2018-06-28T14:13:07.801Z,101326.95
2018-06-28T14:15:35.774Z,101340.11
2018-06-28T14:18:03.586Z,101356.76
2018-06-28T14:20:31.460Z,101363.70
2018-06-28T14:22:59.286Z,101363.97
2018-06-28T14:25:27.110Z,101355.94
2018-06-28T14:27:54.887Z,101358.55
2018-06-28T14:30:22.697Z,101384.22
2018-06-28T14:32:50.586Z,101402.69
2018-06-28T14:35:18.902Z,101404.50
2018-06-28T14:37:46.699Z,101419.70
2018-06-28T14:40:14.462Z,101484.70
2018-06-28T14:42:42.437Z,101520.70
2018-06-28T14:45:10.359Z,101514.42
2018-06-28T14:47:38.359Z,101500.23
2018-06-28T14:50:06.229Z,101514.37
2018-06-28T14:52:33.934Z,101548.37
2018-06-28T14:55:01.748Z,101545.59
2018-06-28T14:57:30.971Z,101543.52
2018-06-28T14:59:59.402Z,101555.28
2018-06-28T15:02:27.180Z,101543.81
2018-06-28T15:04:55.278Z,101552.45
2018-06-28T15:07:23.552Z,101553.27
2018-06-28T15:09:51.378Z,101554.65
2018-06-28T15:12:19.177Z,101569.47
2018-06-28T15:14:46.939Z,101568.72
2018-06-28T15:17:14.744Z,101549.42
2018-06-28T15:19:42.474Z,101506.51
2018-06-28T15:22:10.213Z,101466.40
2018-06-28T15:24:38.885Z,101483.61
2018-06-28T15:27:06.663Z,101515.02
2018-06-28T15:29:34.471Z,101521.87
2018-06-28T15:32:02.857Z,101523.22
2018-06-28T15:34:30.690Z,101508.06
2018-06-28T15:36:58.534Z,101506.82
2018-06-28T15:39:26.423Z,101499.57
2018-06-28T15:41:54.249Z,101491.86
2018-06-28T15:44:22.687Z,101508.20
2018-06-28T15:46:50.610Z,101528.50
2018-06-28T15:49:18.487Z,101544.39
2018-06-28T15:51:46.343Z,101552.14
2018-06-28T15:54:14.139Z,101543.94
2018-06-28T15:56:41.918Z,101544.14
2018-06-28T15:59:09.837Z,101553.91
2018-06-28T16:01:38.363Z,101525.46
2018-06-28T16:04:06.273Z,101558.36
2018-06-28T16:06:34.071Z,101555.95
2018-06-28T16:09:01.934Z,101548.66
2018-06-28T16:11:29.777Z,101544.31
2018-06-28T16:13:57.981Z,101552.80
2018-06-28T16:16:26.482Z,101561.38
2018-06-28T16:18:54.301Z,101535.44
2018-06-28T16:21:22.112Z,101531.78
2018-06-28T16:23:49.872Z,101524.03
2018-06-28T16:26:18.014Z,101527.08
2018-06-28T16:28:45.851Z,101526.92
2018-06-28T16:31:13.791Z,101519.05
2018-06-28T16:33:41.569Z,101515.49
2018-06-28T16:36:10.195Z,101514.52
2018-06-28T16:38:38.298Z,101523.62
2018-06-28T16:41:06.162Z,101524.63
2018-06-28T16:43:34.007Z,101507.50
2018-06-28T16:46:01.928Z,101501.16
2018-06-28T16:48:29.742Z,101491.22
2018-06-28T16:50:57.744Z,101486.59
2018-06-28T16:53:26.620Z,101474.79
2018-06-28T16:55:55.023Z,101468.78
2018-06-28T16:58:23.044Z,101458.59
2018-06-28T17:00:51.095Z,101445.02
2018-06-28T17:03:18.975Z,101444.16
2018-06-28T17:05:46.770Z,101441.23
2018-06-28T17:08:14.674Z,101427.61
2018-06-28T17:10:42.490Z,101429.20
2018-06-28T17:13:10.275Z,101437.66
2018-06-28T17:15:38.152Z,101447.77
2018-06-28T17:18:06.011Z,101429.93
2018-06-28T17:20:33.934Z,101428.73
2018-06-28T17:23:01.720Z,101431.59
2018-06-28T17:25:29.542Z,101439.66
2018-06-28T17:27:58.261Z,101438.96
2018-06-28T17:30:26.098Z,101428.42
2018-06-28T17:32:53.935Z,101430.98
2018-06-28T17:35:21.686Z,101432.87
2018-06-28T17:37:49.454Z,101435.61
2018-06-28T17:40:17.354Z,101429.25
2018-06-28T17:42:45.198Z,101436.51
2018-06-28T17:45:12.904Z,101423.50
2018-06-28T17:47:40.707Z,101410.39
2018-06-28T17:50:08.474Z,101406.14
2018-06-28T17:52:36.423Z,101405.41
2018-06-28T17:55:04.546Z,101411.95
2018-06-28T17:57:32.333Z,101415.92
2018-06-28T18:00:00.121Z,101422.77
2018-06-28T18:02:27.899Z,101417.56
2018-06-28T18:04:55.734Z,101415.98
2018-06-28T18:07:23.535Z,101419.83
2018-06-28T18:09:51.307Z,101419.94
2018-06-28T18:12:19.196Z,101430.92
2018-06-28T18:14:46.958Z,101424.83
2018-06-28T18:17:14.872Z,101426.08
2018-06-28T18:19:42.622Z,101422.17
2018-06-28T18:22:10.435Z,101416.72
2018-06-28T18:24:38.209Z,101421.95
2018-06-28T18:27:06.047Z,101420.37
2018-06-28T18:29:33.826Z,101421.84
2018-06-28T18:32:01.633Z,101420.13
2018-06-28T18:34:29.558Z,101422.19
2018-06-28T18:36:57.402Z,101418.78
2018-06-28T18:39:25.171Z,101429.53
2018-06-28T18:41:52.958Z,101428.78
2018-06-28T18:44:20.715Z,101432.55
2018-06-28T18:46:48.551Z,101440.98
2018-06-28T18:49:16.450Z,101458.98
2018-06-28T18:51:44.346Z,101438.99
2018-06-28T18:54:12.147Z,101450.42
2018-06-28T18:56:39.957Z,101452.48
2018-06-28T18:59:07.750Z,101468.38
2018-06-28T19:01:35.551Z,101446.09
2018-06-28T19:04:03.332Z,101453.29
2018-06-28T19:06:31.130Z,101464.20
2018-06-28T19:08:58.954Z,101482.31
2018-06-28T19:11:26.755Z,101465.89
2018-06-28T19:14:00.063Z,101467.14
2018-06-28T19:16:33.313Z,101461.16
2018-06-28T19:19:01.151Z,101465.22
2018-06-28T19:21:34.338Z,101474.17
2018-06-28T19:24:02.228Z,101479.14
2018-06-28T19:26:30.025Z,101476.70
2018-06-28T19:29:02.303Z,101492.27
2018-06-28T19:31:35.480Z,101491.23
2018-06-28T19:34:03.254Z,101490.49
2018-06-28T19:36:31.127Z,101489.05
2018-06-28T19:39:04.314Z,101494.00
2018-06-28T19:41:37.507Z,101499.27
2018-06-28T19:44:05.487Z,101491.34
2018-06-28T19:46:33.306Z,101485.48
2018-06-28T19:49:01.177Z,101493.66
2018-06-28T19:51:34.592Z,101513.83
2018-06-28T19:54:02.399Z,101505.95
2018-06-28T19:56:30.221Z,101506.98
2018-06-28T19:58:58.162Z,101499.47
2018-06-28T20:01:31.539Z,101494.59
2018-06-28T20:04:04.734Z,101498.06
2018-06-28T20:06:32.496Z,101507.19
2018-06-28T20:09:00.256Z,101508.29
2018-06-28T20:11:28.066Z,101506.53
2018-06-28T20:14:01.954Z,101507.86
2018-06-28T20:16:35.382Z,101515.01
2018-06-28T20:19:08.687Z,101523.56
2018-06-28T20:21:36.508Z,101520.13
2018-06-28T20:24:04.345Z,101532.50
2018-06-28T20:26:37.717Z,101534.03
2018-06-28T20:29:10.868Z,101517.25
2018-06-28T20:31:44.371Z,101524.73
2018-06-28T20:34:12.790Z,101279.64
2018-06-28T20:36:40.634Z,101531.95
2018-06-28T20:39:09.430Z,101531.11
2018-06-28T20:41:37.298Z,101530.70
2018-06-28T20:44:06.176Z,101531.56
2018-06-28T20:46:34.220Z,101518.60
2018-06-28T20:49:02.302Z,101513.75
2018-06-28T20:51:30.130Z,101524.03
2018-06-28T20:53:57.911Z,101528.71
2018-06-28T20:56:25.778Z,101519.35
2018-06-28T20:58:53.841Z,101525.36
2018-06-28T21:01:21.638Z,101520.22
2018-06-28T21:03:49.422Z,101518.63
2018-06-28T21:06:17.218Z,101528.36
2018-06-28T21:08:45.064Z,101518.20
2018-06-28T21:11:12.858Z,101532.22
2018-06-28T21:13:40.607Z,101527.00
2018-06-28T21:16:08.384Z,101533.59
2018-06-28T21:18:36.198Z,101532.78
2018-06-28T21:21:04.007Z,101541.04
2018-06-28T21:23:31.899Z,101534.97
2018-06-28T21:25:59.643Z,101540.26
2018-06-28T21:28:27.380Z,101542.98
2018-06-28T21:30:55.878Z,101542.25
2018-06-28T21:33:23.722Z,101532.63
2018-06-28T21:35:51.518Z,101549.55
2018-06-28T21:38:19.280Z,101558.55
2018-06-28T21:40:47.069Z,101550.95
2018-06-28T21:43:14.791Z,101548.59
2018-06-28T21:45:42.569Z,101554.00
2018-06-28T21:48:10.354Z,101470.22
2018-06-28T21:50:38.187Z,101539.50
2018-06-28T21:53:05.906Z,101547.84
2018-06-28T21:55:33.712Z,101533.63
2018-06-28T21:58:01.399Z,101536.16
2018-06-28T22:00:31.885Z,101535.23
2018-06-28T22:03:01.413Z,101548.05
2018-06-28T22:05:29.714Z,101535.53
2018-06-28T22:07:57.903Z,101539.23
2018-06-28T22:10:25.746Z,101541.70
2018-06-28T22:12:53.526Z,101536.28
2018-06-28T22:15:27.406Z,101544.41
2018-06-28T22:18:03.578Z,101532.28
2018-06-28T22:20:32.094Z,101536.83
2018-06-28T22:22:59.874Z,101539.05
2018-06-28T22:25:28.738Z,101558.25
2018-06-28T22:27:56.613Z,101555.43
2018-06-28T22:30:24.590Z,101551.91
2018-06-28T22:32:52.369Z,101556.34
2018-06-28T22:35:20.150Z,101562.72
2018-06-28T22:37:48.105Z,101564.06
2018-06-28T22:40:16.102Z,101556.66
2018-06-28T22:42:43.880Z,101564.51
2018-06-28T22:45:11.669Z,101567.27
2018-06-28T22:47:39.460Z,101566.70
2018-06-28T22:50:07.316Z,101567.92
2018-06-28T22:52:35.100Z,101572.39
2018-06-28T22:55:02.922Z,101577.29
2018-06-28T22:57:30.991Z,101576.25
2018-06-28T22:59:58.773Z,101583.00
2018-06-28T23:02:26.601Z,101583.20
2018-06-28T23:04:54.930Z,101588.95
2018-06-28T23:07:23.047Z,101578.05
2018-06-28T23:09:50.786Z,101581.00
2018-06-28T23:12:18.730Z,101575.42
2018-06-28T23:14:46.461Z,101591.05
2018-06-28T23:17:14.186Z,101584.60
2018-06-28T23:19:41.935Z,101581.52
2018-06-28T23:22:46.738Z,101578.16
2018-06-28T23:25:15.136Z,101584.90
2018-06-28T23:27:43.839Z,101575.23
2018-06-28T23:30:11.791Z,101593.31
2018-06-28T23:32:39.546Z,101600.82
2018-06-28T23:35:07.642Z,101579.94
2018-06-28T23:37:35.372Z,101590.77
2018-06-28T23:40:03.618Z,101587.25
2018-06-28T23:42:31.410Z,101599.30
2018-06-28T23:44:59.229Z,101586.44
2018-06-28T23:47:27.147Z,101599.33
2018-06-28T23:49:54.873Z,101612.77
2018-06-28T23:52:22.693Z,101594.22
2018-06-28T23:54:50.499Z,101601.23
2018-06-28T23:57:18.679Z,101608.21
2018-06-28T23:59:46.510Z,101605.06
